Airfield :
LOGIN :

Register | Disclaimer

   EN    FR    IT 

 










Legend :    VFR   Marginal VFR   IFR   Intensive IFR   Very Intensive IFR
Visi :
Ceiling :
>= 8 km
>= 3000ft
5 to 8 km
1000 to 3000 ft
1500m to 5 km
500 to 1000 ft
800 to 1500m
200 to 500 ft
< 800m
< 200 ft
Symbols :   Thunderstorms  Fog  Heavy snow  Heavy precipitations  Wind > 20 kt
SIGMETs :     Misc.  Thunderstorms  Icing  Turbulence  Mountain Waves  Volcanic Ashes






- Airport Elevation : 23 ft
- IATA code : XFW


EDHI - Hamburg Finkenwerder

CURRENT METAR :
  • 281520Z AUTO 12007KT 080V160 9999 // OVC009/// 02/01 Q1026

EXPIRED METARs :
  • 281450Z AUTO 11006KT 070V150 9999 // OVC007/// 02/01 Q1026
  • 281420Z AUTO 11006KT 070V160 9999 // OVC005/// 02/01 Q1025
  • 281350Z AUTO 11006KT 060V160 9999 // OVC004/// 02/01 Q1025
  • 281320Z AUTO 12006KT 080V160 9999 // OVC004/// 02/01 Q1025
  • 281250Z AUTO 12008KT 070V160 8000 // OVC002/// 01/01 Q1025

Expired Forecast.



MET'MAP, your aeronautical weather chart ! - Copyright ORBIFLY December 2007 - Disclaimer

ORBIFLY MET'MAP TEAM :

Programming & Development : Alexandra Zaïnal
Concept & original design : Baudouin d'Aumeries
Assistance for programming : Marc-Olivier Méhu
Technical & hardware support : Manuel Goepfert

Contact : metmap@orbifly.com




SOURCES & CREDITS :

   NOAA